sensor_id;sensor_type;location;lat;lon;timestamp;P1;durP1;ratioP1;P2;durP2;ratioP2
64917;SDS011;52176;44.858;38.372;2023-03-01T00:01:11;11.07;;;6.43;;
64917;SDS011;52176;44.858;38.372;2023-03-01T00:03:39;12.02;;;6.72;;
64917;SDS011;52176;44.858;38.372;2023-03-01T00:06:05;9.70;;;6.45;;
64917;SDS011;52176;44.858;38.372;2023-03-01T00:08:32;14.05;;;6.55;;
64917;SDS011;52176;44.858;38.372;2023-03-01T00:11:03;9.75;;;6.82;;
64917;SDS011;52176;44.858;38.372;2023-03-01T00:13:31;11.02;;;6.75;;
64917;SDS011;52176;44.858;38.372;2023-03-01T00:15:57;11.98;;;7.20;;
64917;SDS011;52176;44.858;38.372;2023-03-01T00:18:23;10.73;;;6.90;;
64917;SDS011;52176;44.858;38.372;2023-03-01T00:20:53;10.32;;;6.82;;
64917;SDS011;52176;44.858;38.372;2023-03-01T00:23:21;11.45;;;7.18;;
64917;SDS011;52176;44.858;38.372;2023-03-01T00:25:48;12.20;;;7.47;;
64917;SDS011;52176;44.858;38.372;2023-03-01T00:28:14;13.68;;;7.30;;
64917;SDS011;52176;44.858;38.372;2023-03-01T00:30:41;11.07;;;6.35;;
64917;SDS011;52176;44.858;38.372;2023-03-01T00:33:07;11.52;;;7.30;;
64917;SDS011;52176;44.858;38.372;2023-03-01T00:35:33;10.70;;;7.35;;
64917;SDS011;52176;44.858;38.372;2023-03-01T00:37:59;12.50;;;7.18;;
64917;SDS011;52176;44.858;38.372;2023-03-01T00:40:26;11.18;;;7.50;;
64917;SDS011;52176;44.858;38.372;2023-03-01T00:42:54;10.20;;;7.07;;
64917;SDS011;52176;44.858;38.372;2023-03-01T00:45:20;13.88;;;7.95;;
64917;SDS011;52176;44.858;38.372;2023-03-01T00:47:47;13.35;;;7.65;;
64917;SDS011;52176;44.858;38.372;2023-03-01T00:50:14;14.88;;;7.47;;
64917;SDS011;52176;44.858;38.372;2023-03-01T00:52:40;14.68;;;7.13;;
64917;SDS011;52176;44.858;38.372;2023-03-01T00:55:07;12.63;;;7.47;;
64917;SDS011;52176;44.858;38.372;2023-03-01T00:57:33;12.90;;;7.43;;
64917;SDS011;52176;44.858;38.372;2023-03-01T00:59:59;12.95;;;7.80;;
64917;SDS011;52176;44.858;38.372;2023-03-01T01:02:25;12.40;;;7.55;;
64917;SDS011;52176;44.858;38.372;2023-03-01T01:04:52;15.98;;;8.20;;
64917;SDS011;52176;44.858;38.372;2023-03-01T01:07:18;11.98;;;7.05;;
64917;SDS011;52176;44.858;38.372;2023-03-01T01:09:45;11.82;;;7.10;;
64917;SDS011;52176;44.858;38.372;2023-03-01T01:12:12;13.40;;;7.13;;
64917;SDS011;52176;44.858;38.372;2023-03-01T01:14:39;11.80;;;7.20;;
64917;SDS011;52176;44.858;38.372;2023-03-01T01:17:05;12.05;;;7.03;;
64917;SDS011;52176;44.858;38.372;2023-03-01T01:19:31;10.20;;;6.95;;
64917;SDS011;52176;44.858;38.372;2023-03-01T01:21:57;12.10;;;7.38;;
64917;SDS011;52176;44.858;38.372;2023-03-01T01:24:23;11.77;;;7.30;;
64917;SDS011;52176;44.858;38.372;2023-03-01T01:26:49;11.35;;;7.15;;
64917;SDS011;52176;44.858;38.372;2023-03-01T01:29:15;11.50;;;7.25;;
64917;SDS011;52176;44.858;38.372;2023-03-01T01:31:42;10.60;;;6.85;;
64917;SDS011;52176;44.858;38.372;2023-03-01T01:34:12;10.45;;;6.72;;
64917;SDS011;52176;44.858;38.372;2023-03-01T01:36:40;11.18;;;7.10;;
64917;SDS011;52176;44.858;38.372;2023-03-01T01:39:06;11.30;;;7.18;;
64917;SDS011;52176;44.858;38.372;2023-03-01T01:41:32;10.15;;;6.93;;
64917;SDS011;52176;44.858;38.372;2023-03-01T01:44:15;13.48;;;6.85;;
64917;SDS011;52176;44.858;38.372;2023-03-01T01:46:56;12.65;;;6.93;;
64917;SDS011;52176;44.858;38.372;2023-03-01T01:49:56;10.30;;;6.72;;
64917;SDS011;52176;44.858;38.372;2023-03-01T01:52:30;10.98;;;6.80;;
64917;SDS011;52176;44.858;38.372;2023-03-01T01:55:04;11.13;;;6.72;;
64917;SDS011;52176;44.858;38.372;2023-03-01T01:57:38;10.50;;;6.82;;
64917;SDS011;52176;44.858;38.372;2023-03-01T02:00:08;12.30;;;6.88;;
64917;SDS011;52176;44.858;38.372;2023-03-01T02:02:40;11.93;;;7.40;;
64917;SDS011;52176;44.858;38.372;2023-03-01T02:05:14;10.27;;;6.47;;
64917;SDS011;52176;44.858;38.372;2023-03-01T02:07:46;10.55;;;6.35;;
64917;SDS011;52176;44.858;38.372;2023-03-01T02:10:18;12.27;;;6.72;;
64917;SDS011;52176;44.858;38.372;2023-03-01T02:12:46;9.50;;;6.15;;
64917;SDS011;52176;44.858;38.372;2023-03-01T02:15:12;9.90;;;5.90;;
64917;SDS011;52176;44.858;38.372;2023-03-01T02:17:38;10.93;;;6.32;;
64917;SDS011;52176;44.858;38.372;2023-03-01T02:30:24;12.40;;;6.95;;
64917;SDS011;52176;44.858;38.372;2023-03-01T02:32:52;10.23;;;6.40;;
64917;SDS011;52176;44.858;38.372;2023-03-01T02:35:19;11.07;;;6.60;;
64917;SDS011;52176;44.858;38.372;2023-03-01T02:37:45;10.40;;;6.28;;
64917;SDS011;52176;44.858;38.372;2023-03-01T02:40:15;12.65;;;6.47;;
64917;SDS011;52176;44.858;38.372;2023-03-01T02:43:03;11.40;;;6.63;;
64917;SDS011;52176;44.858;38.372;2023-03-01T02:45:31;11.45;;;6.90;;
64917;SDS011;52176;44.858;38.372;2023-03-01T02:47:58;10.95;;;6.57;;
64917;SDS011;52176;44.858;38.372;2023-03-01T02:53:30;14.55;;;7.53;;
64917;SDS011;52176;44.858;38.372;2023-03-01T02:55:53;11.80;;;6.78;;
64917;SDS011;52176;44.858;38.372;2023-03-01T02:58:19;12.93;;;8.05;;
64917;SDS011;52176;44.858;38.372;2023-03-01T03:00:45;12.25;;;7.60;;
64917;SDS011;52176;44.858;38.372;2023-03-01T03:03:16;13.98;;;7.55;;
64917;SDS011;52176;44.858;38.372;2023-03-01T03:05:44;11.50;;;6.85;;
64917;SDS011;52176;44.858;38.372;2023-03-01T03:08:10;20.25;;;7.43;;
64917;SDS011;52176;44.858;38.372;2023-03-01T03:10:38;15.80;;;7.75;;
64917;SDS011;52176;44.858;38.372;2023-03-01T03:13:06;13.25;;;7.63;;
64917;SDS011;52176;44.858;38.372;2023-03-01T03:15:38;15.45;;;6.88;;
64917;SDS011;52176;44.858;38.372;2023-03-01T03:18:06;13.65;;;8.10;;
64917;SDS011;52176;44.858;38.372;2023-03-01T03:20:35;12.23;;;7.07;;
64917;SDS011;52176;44.858;38.372;2023-03-01T03:23:02;12.25;;;6.80;;
64917;SDS011;52176;44.858;38.372;2023-03-01T03:25:28;12.32;;;6.57;;
64917;SDS011;52176;44.858;38.372;2023-03-01T03:27:54;12.30;;;7.45;;
64917;SDS011;52176;44.858;38.372;2023-03-01T03:30:28;13.43;;;6.95;;
64917;SDS011;52176;44.858;38.372;2023-03-01T03:32:56;13.00;;;7.32;;
64917;SDS011;52176;44.858;38.372;2023-03-01T03:37:57;11.75;;;7.40;;
64917;SDS011;52176;44.858;38.372;2023-03-01T03:40:31;18.38;;;7.60;;
64917;SDS011;52176;44.858;38.372;2023-03-01T03:43:03;16.90;;;8.43;;
64917;SDS011;52176;44.858;38.372;2023-03-01T03:45:30;16.75;;;8.98;;
64917;SDS011;52176;44.858;38.372;2023-03-01T03:48:02;14.93;;;8.73;;
64917;SDS011;52176;44.858;38.372;2023-03-01T03:50:30;15.65;;;8.88;;
64917;SDS011;52176;44.858;38.372;2023-03-01T03:52:56;15.60;;;8.70;;
64917;SDS011;52176;44.858;38.372;2023-03-01T03:55:22;15.13;;;7.88;;
64917;SDS011;52176;44.858;38.372;2023-03-01T03:57:53;14.07;;;7.93;;
64917;SDS011;52176;44.858;38.372;2023-03-01T04:00:20;14.38;;;7.88;;
64917;SDS011;52176;44.858;38.372;2023-03-01T04:02:49;17.80;;;8.75;;
64917;SDS011;52176;44.858;38.372;2023-03-01T04:05:17;17.88;;;9.15;;
64917;SDS011;52176;44.858;38.372;2023-03-01T04:07:44;15.60;;;8.98;;
64917;SDS011;52176;44.858;38.372;2023-03-01T04:10:12;18.50;;;9.93;;
64917;SDS011;52176;44.858;38.372;2023-03-01T04:12:42;16.75;;;8.30;;
64917;SDS011;52176;44.858;38.372;2023-03-01T04:15:08;20.00;;;9.27;;
64917;SDS011;52176;44.858;38.372;2023-03-01T04:17:39;18.45;;;8.95;;
64917;SDS011;52176;44.858;38.372;2023-03-01T04:20:05;19.40;;;9.93;;
64917;SDS011;52176;44.858;38.372;2023-03-01T04:22:32;23.75;;;9.52;;
64917;SDS011;52176;44.858;38.372;2023-03-01T04:24:58;17.95;;;9.35;;
64917;SDS011;52176;44.858;38.372;2023-03-01T04:30:01;25.40;;;10.73;;
64917;SDS011;52176;44.858;38.372;2023-03-01T04:32:28;17.80;;;10.00;;
64917;SDS011;52176;44.858;38.372;2023-03-01T06:27:32;11.75;;;6.85;;
64917;SDS011;52176;44.858;38.372;2023-03-01T06:29:58;13.30;;;6.60;;
64917;SDS011;52176;44.858;38.372;2023-03-01T06:32:24;10.75;;;6.60;;
64917;SDS011;52176;44.858;38.372;2023-03-01T06:34:50;12.50;;;6.55;;
64917;SDS011;52176;44.858;38.372;2023-03-01T06:37:16;14.95;;;8.10;;
64917;SDS011;52176;44.858;38.372;2023-03-01T06:39:42;13.40;;;7.70;;
64917;SDS011;52176;44.858;38.372;2023-03-01T06:42:08;17.98;;;7.82;;
64917;SDS011;52176;44.858;38.372;2023-03-01T06:44:35;12.73;;;7.82;;
64917;SDS011;52176;44.858;38.372;2023-03-01T06:47:02;15.95;;;7.60;;
64917;SDS011;52176;44.858;38.372;2023-03-01T06:49:28;14.32;;;7.45;;
64917;SDS011;52176;44.858;38.372;2023-03-01T06:51:55;15.25;;;8.02;;
64917;SDS011;52176;44.858;38.372;2023-03-01T06:54:22;16.90;;;9.00;;
64917;SDS011;52176;44.858;38.372;2023-03-01T06:56:48;16.10;;;8.02;;
64917;SDS011;52176;44.858;38.372;2023-03-01T06:59:15;12.43;;;7.35;;
64917;SDS011;52176;44.858;38.372;2023-03-01T07:01:42;12.82;;;7.45;;
64917;SDS011;52176;44.858;38.372;2023-03-01T07:04:08;15.68;;;8.00;;
64917;SDS011;52176;44.858;38.372;2023-03-01T07:06:35;14.57;;;8.25;;
64917;SDS011;52176;44.858;38.372;2023-03-01T07:35:55;17.98;;;7.30;;
64917;SDS011;52176;44.858;38.372;2023-03-01T07:38:25;17.77;;;8.23;;
64917;SDS011;52176;44.858;38.372;2023-03-01T07:43:18;12.68;;;7.65;;
64917;SDS011;52176;44.858;38.372;2023-03-01T07:45:44;14.00;;;7.68;;
64917;SDS011;52176;44.858;38.372;2023-03-01T07:48:10;12.82;;;7.80;;
64917;SDS011;52176;44.858;38.372;2023-03-01T08:19:45;12.13;;;7.30;;
64917;SDS011;52176;44.858;38.372;2023-03-01T08:22:11;17.10;;;8.20;;
64917;SDS011;52176;44.858;38.372;2023-03-01T08:24:37;22.52;;;7.60;;
64917;SDS011;52176;44.858;38.372;2023-03-01T08:27:03;12.93;;;7.45;;
64917;SDS011;52176;44.858;38.372;2023-03-01T08:29:32;16.25;;;8.20;;
64917;SDS011;52176;44.858;38.372;2023-03-01T08:46:39;13.05;;;8.48;;
64917;SDS011;52176;44.858;38.372;2023-03-01T08:49:06;14.80;;;8.30;;
64917;SDS011;52176;44.858;38.372;2023-03-01T08:51:34;14.82;;;7.60;;
64917;SDS011;52176;44.858;38.372;2023-03-01T08:54:11;13.43;;;8.02;;
64917;SDS011;52176;44.858;38.372;2023-03-01T08:56:40;17.63;;;9.27;;
64917;SDS011;52176;44.858;38.372;2023-03-01T08:59:06;19.58;;;9.25;;
64917;SDS011;52176;44.858;38.372;2023-03-01T09:01:32;14.65;;;8.32;;
64917;SDS011;52176;44.858;38.372;2023-03-01T09:03:58;17.30;;;7.78;;
64917;SDS011;52176;44.858;38.372;2023-03-01T09:06:25;15.70;;;8.52;;
64917;SDS011;52176;44.858;38.372;2023-03-01T09:08:51;27.92;;;8.50;;
64917;SDS011;52176;44.858;38.372;2023-03-01T09:11:18;14.50;;;8.52;;
64917;SDS011;52176;44.858;38.372;2023-03-01T09:13:46;14.90;;;7.50;;
64917;SDS011;52176;44.858;38.372;2023-03-01T09:16:14;16.00;;;7.07;;
64917;SDS011;52176;44.858;38.372;2023-03-01T09:18:42;11.27;;;6.50;;
64917;SDS011;52176;44.858;38.372;2023-03-01T09:21:10;12.73;;;6.68;;
64917;SDS011;52176;44.858;38.372;2023-03-01T09:23:41;11.48;;;6.00;;
64917;SDS011;52176;44.858;38.372;2023-03-01T09:26:10;14.95;;;6.05;;
64917;SDS011;52176;44.858;38.372;2023-03-01T09:28:38;17.85;;;6.80;;
64917;SDS011;52176;44.858;38.372;2023-03-01T09:31:06;12.50;;;6.40;;
64917;SDS011;52176;44.858;38.372;2023-03-01T09:33:32;14.38;;;7.03;;
64917;SDS011;52176;44.858;38.372;2023-03-01T09:36:02;15.25;;;6.80;;
64917;SDS011;52176;44.858;38.372;2023-03-01T09:38:30;10.60;;;6.45;;
64917;SDS011;52176;44.858;38.372;2023-03-01T09:40:56;13.73;;;6.70;;
64917;SDS011;52176;44.858;38.372;2023-03-01T09:46:03;11.57;;;5.82;;
64917;SDS011;52176;44.858;38.372;2023-03-01T09:48:33;12.00;;;6.50;;
64917;SDS011;52176;44.858;38.372;2023-03-01T09:51:07;10.73;;;5.90;;
64917;SDS011;52176;44.858;38.372;2023-03-01T09:53:44;11.35;;;5.47;;
64917;SDS011;52176;44.858;38.372;2023-03-01T09:58:49;11.60;;;5.20;;
64917;SDS011;52176;44.858;38.372;2023-03-01T10:07:06;9.43;;;4.75;;
64917;SDS011;52176;44.858;38.372;2023-03-01T10:09:39;10.10;;;4.60;;
64917;SDS011;52176;44.858;38.372;2023-03-01T10:12:09;5.70;;;3.83;;
64917;SDS011;52176;44.858;38.372;2023-03-01T10:14:39;9.65;;;4.40;;
64917;SDS011;52176;44.858;38.372;2023-03-01T10:20:25;9.05;;;4.80;;
64917;SDS011;52176;44.858;38.372;2023-03-01T10:25:39;11.00;;;5.97;;
64917;SDS011;52176;44.858;38.372;2023-03-01T10:28:35;10.05;;;6.22;;
64917;SDS011;52176;44.858;38.372;2023-03-01T10:31:15;11.05;;;5.82;;
64917;SDS011;52176;44.858;38.372;2023-03-01T10:33:45;11.90;;;6.78;;
64917;SDS011;52176;44.858;38.372;2023-03-01T10:36:13;14.23;;;6.63;;
64917;SDS011;52176;44.858;38.372;2023-03-01T10:38:52;10.60;;;5.90;;
64917;SDS011;52176;44.858;38.372;2023-03-01T10:41:21;10.88;;;6.57;;
64917;SDS011;52176;44.858;38.372;2023-03-01T10:43:52;15.52;;;6.40;;
64917;SDS011;52176;44.858;38.372;2023-03-01T10:51:41;10.38;;;6.15;;
64917;SDS011;52176;44.858;38.372;2023-03-01T10:56:50;10.05;;;6.18;;
64917;SDS011;52176;44.858;38.372;2023-03-01T11:05:13;10.45;;;6.10;;
64917;SDS011;52176;44.858;38.372;2023-03-01T11:07:49;9.70;;;6.07;;
64917;SDS011;52176;44.858;38.372;2023-03-01T11:10:20;11.60;;;5.28;;
64917;SDS011;52176;44.858;38.372;2023-03-01T11:12:49;8.18;;;5.70;;
64917;SDS011;52176;44.858;38.372;2023-03-01T11:15:20;9.35;;;5.75;;
64917;SDS011;52176;44.858;38.372;2023-03-01T11:17:49;9.02;;;6.13;;
64917;SDS011;52176;44.858;38.372;2023-03-01T11:20:18;10.23;;;6.32;;
64917;SDS011;52176;44.858;38.372;2023-03-01T11:23:05;16.20;;;5.88;;
64917;SDS011;52176;44.858;38.372;2023-03-01T11:25:36;10.95;;;5.70;;
64917;SDS011;52176;44.858;38.372;2023-03-01T11:28:06;8.95;;;5.88;;
64917;SDS011;52176;44.858;38.372;2023-03-01T11:33:49;13.88;;;6.93;;
64917;SDS011;52176;44.858;38.372;2023-03-01T11:39:27;11.45;;;6.13;;
64917;SDS011;52176;44.858;38.372;2023-03-01T11:44:29;11.73;;;6.38;;
64917;SDS011;52176;44.858;38.372;2023-03-01T11:49:38;13.75;;;5.68;;
64917;SDS011;52176;44.858;38.372;2023-03-01T11:55:26;11.13;;;6.30;;
64917;SDS011;52176;44.858;38.372;2023-03-01T12:29:47;20.15;;;7.10;;
64917;SDS011;52176;44.858;38.372;2023-03-01T12:32:47;16.70;;;7.53;;
64917;SDS011;52176;44.858;38.372;2023-03-01T12:38:36;37.88;;;14.77;;
64917;SDS011;52176;44.858;38.372;2023-03-01T12:49:57;35.67;;;15.30;;
64917;SDS011;52176;44.858;38.372;2023-03-01T12:52:49;43.97;;;16.92;;
64917;SDS011;52176;44.858;38.372;2023-03-01T12:55:39;34.10;;;13.50;;
64917;SDS011;52176;44.858;38.372;2023-03-01T12:58:23;30.95;;;12.60;;
64917;SDS011;52176;44.858;38.372;2023-03-01T13:03:48;40.10;;;14.95;;
64917;SDS011;52176;44.858;38.372;2023-03-01T13:09:14;30.15;;;12.30;;
64917;SDS011;52176;44.858;38.372;2023-03-01T13:11:49;25.02;;;10.30;;
64917;SDS011;52176;44.858;38.372;2023-03-01T13:16:48;12.23;;;5.40;;
64917;SDS011;52176;44.858;38.372;2023-03-01T13:19:25;12.15;;;4.65;;
64917;SDS011;52176;44.858;38.372;2023-03-01T13:21:55;10.40;;;4.97;;
64917;SDS011;52176;44.858;38.372;2023-03-01T13:24:27;11.18;;;4.85;;
64917;SDS011;52176;44.858;38.372;2023-03-01T13:29:47;12.30;;;5.30;;
64917;SDS011;52176;44.858;38.372;2023-03-01T13:34:53;9.68;;;5.18;;
64917;SDS011;52176;44.858;38.372;2023-03-01T13:37:20;11.05;;;5.28;;
64917;SDS011;52176;44.858;38.372;2023-03-01T13:39:51;14.75;;;5.97;;
64917;SDS011;52176;44.858;38.372;2023-03-01T13:42:37;10.23;;;5.32;;
64917;SDS011;52176;44.858;38.372;2023-03-01T13:45:12;14.32;;;5.50;;
64917;SDS011;52176;44.858;38.372;2023-03-01T13:47:46;9.32;;;5.07;;
64917;SDS011;52176;44.858;38.372;2023-03-01T13:50:16;17.48;;;5.47;;
64917;SDS011;52176;44.858;38.372;2023-03-01T13:52:50;16.92;;;5.65;;
64917;SDS011;52176;44.858;38.372;2023-03-01T13:55:24;16.63;;;5.70;;
64917;SDS011;52176;44.858;38.372;2023-03-01T13:58:04;12.70;;;6.10;;
64917;SDS011;52176;44.858;38.372;2023-03-01T14:00:40;11.90;;;5.50;;
64917;SDS011;52176;44.858;38.372;2023-03-01T14:03:11;16.23;;;6.05;;
64917;SDS011;52176;44.858;38.372;2023-03-01T14:08:41;16.42;;;5.47;;
64917;SDS011;52176;44.858;38.372;2023-03-01T14:13:59;14.00;;;5.85;;
64917;SDS011;52176;44.858;38.372;2023-03-01T14:19:21;16.70;;;7.57;;
64917;SDS011;52176;44.858;38.372;2023-03-01T14:24:59;15.95;;;7.97;;
64917;SDS011;52176;44.858;38.372;2023-03-01T14:27:28;26.45;;;8.32;;
64917;SDS011;52176;44.858;38.372;2023-03-01T14:30:14;17.75;;;7.82;;
64917;SDS011;52176;44.858;38.372;2023-03-01T14:32:41;18.77;;;8.20;;
64917;SDS011;52176;44.858;38.372;2023-03-01T14:38:05;25.38;;;8.43;;
64917;SDS011;52176;44.858;38.372;2023-03-01T14:40:32;19.67;;;8.60;;
64917;SDS011;52176;44.858;38.372;2023-03-01T14:43:00;21.75;;;8.20;;
64917;SDS011;52176;44.858;38.372;2023-03-01T14:45:33;15.10;;;7.32;;
64917;SDS011;52176;44.858;38.372;2023-03-01T14:48:00;24.77;;;7.53;;
64917;SDS011;52176;44.858;38.372;2023-03-01T14:50:30;12.45;;;6.15;;
64917;SDS011;52176;44.858;38.372;2023-03-01T14:53:03;21.17;;;6.40;;
64917;SDS011;52176;44.858;38.372;2023-03-01T14:55:35;10.52;;;5.57;;
64917;SDS011;52176;44.858;38.372;2023-03-01T14:58:10;11.57;;;6.25;;
64917;SDS011;52176;44.858;38.372;2023-03-01T15:00:39;14.90;;;6.03;;
64917;SDS011;52176;44.858;38.372;2023-03-01T15:03:44;15.85;;;6.82;;
64917;SDS011;52176;44.858;38.372;2023-03-01T15:06:10;12.25;;;6.70;;
64917;SDS011;52176;44.858;38.372;2023-03-01T15:08:40;14.88;;;6.43;;
64917;SDS011;52176;44.858;38.372;2023-03-01T15:13:50;10.57;;;6.00;;
64917;SDS011;52176;44.858;38.372;2023-03-01T15:16:18;13.23;;;6.50;;
64917;SDS011;52176;44.858;38.372;2023-03-01T15:21:37;10.82;;;6.72;;
64917;SDS011;52176;44.858;38.372;2023-03-01T15:26:57;16.23;;;7.45;;
64917;SDS011;52176;44.858;38.372;2023-03-01T15:29:32;10.43;;;6.55;;
64917;SDS011;52176;44.858;38.372;2023-03-01T15:34:51;13.02;;;6.53;;
64917;SDS011;52176;44.858;38.372;2023-03-01T15:37:38;12.65;;;6.20;;
64917;SDS011;52176;44.858;38.372;2023-03-01T15:40:21;13.50;;;6.65;;
64917;SDS011;52176;44.858;38.372;2023-03-01T15:45:57;14.77;;;6.50;;
64917;SDS011;52176;44.858;38.372;2023-03-01T15:48:23;12.05;;;6.75;;
64917;SDS011;52176;44.858;38.372;2023-03-01T15:50:55;10.55;;;6.18;;
64917;SDS011;52176;44.858;38.372;2023-03-01T15:53:23;10.93;;;6.50;;
64917;SDS011;52176;44.858;38.372;2023-03-01T15:55:49;15.93;;;8.00;;
64917;SDS011;52176;44.858;38.372;2023-03-01T15:58:17;25.90;;;10.63;;
64917;SDS011;52176;44.858;38.372;2023-03-01T16:00:46;37.97;;;13.60;;
64917;SDS011;52176;44.858;38.372;2023-03-01T16:03:14;46.50;;;17.00;;
64917;SDS011;52176;44.858;38.372;2023-03-01T16:05:47;46.25;;;17.08;;
64917;SDS011;52176;44.858;38.372;2023-03-01T16:08:15;27.90;;;13.20;;
64917;SDS011;52176;44.858;38.372;2023-03-01T16:10:42;24.50;;;8.73;;
64917;SDS011;52176;44.858;38.372;2023-03-01T16:13:13;16.42;;;7.80;;
64917;SDS011;52176;44.858;38.372;2023-03-01T16:15:39;13.52;;;7.65;;
64917;SDS011;52176;44.858;38.372;2023-03-01T16:18:06;13.02;;;6.60;;
64917;SDS011;52176;44.858;38.372;2023-03-01T16:20:35;18.65;;;6.68;;
64917;SDS011;52176;44.858;38.372;2023-03-01T16:23:02;15.13;;;6.32;;
64917;SDS011;52176;44.858;38.372;2023-03-01T16:25:30;26.75;;;6.68;;
64917;SDS011;52176;44.858;38.372;2023-03-01T16:27:57;28.63;;;7.72;;
64917;SDS011;52176;44.858;38.372;2023-03-01T16:30:26;15.57;;;7.30;;
64917;SDS011;52176;44.858;38.372;2023-03-01T16:32:52;13.07;;;7.18;;
64917;SDS011;52176;44.858;38.372;2023-03-01T16:35:19;13.32;;;7.60;;
64917;SDS011;52176;44.858;38.372;2023-03-01T16:37:46;18.15;;;6.68;;
64917;SDS011;52176;44.858;38.372;2023-03-01T16:40:17;15.77;;;7.60;;
64917;SDS011;52176;44.858;38.372;2023-03-01T16:42:43;17.60;;;7.43;;
64917;SDS011;52176;44.858;38.372;2023-03-01T16:45:10;18.80;;;7.82;;
64917;SDS011;52176;44.858;38.372;2023-03-01T16:47:36;16.77;;;8.23;;
64917;SDS011;52176;44.858;38.372;2023-03-01T16:50:02;25.17;;;10.23;;
64917;SDS011;52176;44.858;38.372;2023-03-01T16:52:28;18.35;;;9.43;;
64917;SDS011;52176;44.858;38.372;2023-03-01T16:54:54;21.83;;;9.55;;
64917;SDS011;52176;44.858;38.372;2023-03-01T16:57:20;16.45;;;9.18;;
64917;SDS011;52176;44.858;38.372;2023-03-01T16:59:46;19.08;;;8.57;;
64917;SDS011;52176;44.858;38.372;2023-03-01T17:02:12;16.00;;;8.73;;
64917;SDS011;52176;44.858;38.372;2023-03-01T17:04:40;21.52;;;9.90;;
64917;SDS011;52176;44.858;38.372;2023-03-01T17:07:06;17.38;;;9.38;;
64917;SDS011;52176;44.858;38.372;2023-03-01T17:09:36;22.45;;;8.85;;
64917;SDS011;52176;44.858;38.372;2023-03-01T17:12:03;18.17;;;9.85;;
64917;SDS011;52176;44.858;38.372;2023-03-01T17:14:30;32.33;;;10.50;;
64917;SDS011;52176;44.858;38.372;2023-03-01T17:16:56;21.30;;;9.00;;
64917;SDS011;52176;44.858;38.372;2023-03-01T17:19:22;15.60;;;8.55;;
64917;SDS011;52176;44.858;38.372;2023-03-01T17:21:48;22.55;;;9.23;;
64917;SDS011;52176;44.858;38.372;2023-03-01T17:24:14;23.95;;;9.43;;
64917;SDS011;52176;44.858;38.372;2023-03-01T17:26:40;35.75;;;10.48;;
64917;SDS011;52176;44.858;38.372;2023-03-01T17:29:06;24.80;;;9.45;;
64917;SDS011;52176;44.858;38.372;2023-03-01T17:31:32;25.17;;;9.73;;
64917;SDS011;52176;44.858;38.372;2023-03-01T17:33:58;20.05;;;9.57;;
64917;SDS011;52176;44.858;38.372;2023-03-01T17:36:24;24.33;;;10.35;;
64917;SDS011;52176;44.858;38.372;2023-03-01T17:38:51;23.92;;;10.70;;
64917;SDS011;52176;44.858;38.372;2023-03-01T17:41:17;21.80;;;10.68;;
64917;SDS011;52176;44.858;38.372;2023-03-01T17:43:45;30.92;;;10.65;;
64917;SDS011;52176;44.858;38.372;2023-03-01T17:46:11;20.08;;;9.95;;
64917;SDS011;52176;44.858;38.372;2023-03-01T17:48:37;25.33;;;11.32;;
64917;SDS011;52176;44.858;38.372;2023-03-01T17:51:07;33.30;;;11.13;;
64917;SDS011;52176;44.858;38.372;2023-03-01T17:53:35;18.65;;;9.63;;
64917;SDS011;52176;44.858;38.372;2023-03-01T17:56:03;29.67;;;10.20;;
64917;SDS011;52176;44.858;38.372;2023-03-01T17:58:31;19.48;;;9.25;;
64917;SDS011;52176;44.858;38.372;2023-03-01T18:03:45;16.95;;;9.07;;
64917;SDS011;52176;44.858;38.372;2023-03-01T18:08:44;34.15;;;13.60;;
64917;SDS011;52176;44.858;38.372;2023-03-01T18:11:12;31.33;;;13.20;;
64917;SDS011;52176;44.858;38.372;2023-03-01T18:13:39;34.08;;;13.60;;
64917;SDS011;52176;44.858;38.372;2023-03-01T18:16:06;26.33;;;12.25;;
64917;SDS011;52176;44.858;38.372;2023-03-01T18:18:35;19.33;;;10.27;;
64917;SDS011;52176;44.858;38.372;2023-03-01T18:21:02;20.00;;;10.00;;
64917;SDS011;52176;44.858;38.372;2023-03-01T18:23:29;30.17;;;10.55;;
64917;SDS011;52176;44.858;38.372;2023-03-01T18:26:29;23.00;;;11.07;;
64917;SDS011;52176;44.858;38.372;2023-03-01T18:28:50;18.38;;;10.07;;
64917;SDS011;52176;44.858;38.372;2023-03-01T18:31:17;22.02;;;8.18;;
64917;SDS011;52176;44.858;38.372;2023-03-01T18:33:48;18.10;;;7.22;;
64917;SDS011;52176;44.858;38.372;2023-03-01T18:36:22;21.23;;;9.55;;
64917;SDS011;52176;44.858;38.372;2023-03-01T18:38:50;20.98;;;10.85;;
64917;SDS011;52176;44.858;38.372;2023-03-01T18:41:18;30.33;;;11.23;;
64917;SDS011;52176;44.858;38.372;2023-03-01T18:43:44;26.92;;;11.15;;
64917;SDS011;52176;44.858;38.372;2023-03-01T18:46:10;21.80;;;9.32;;
64917;SDS011;52176;44.858;38.372;2023-03-01T18:48:37;18.73;;;9.40;;
64917;SDS011;52176;44.858;38.372;2023-03-01T18:51:11;23.02;;;9.75;;
64917;SDS011;52176;44.858;38.372;2023-03-01T18:53:42;28.25;;;9.45;;
64917;SDS011;52176;44.858;38.372;2023-03-01T18:56:09;24.02;;;10.02;;
64917;SDS011;52176;44.858;38.372;2023-03-01T18:58:35;25.05;;;9.40;;
64917;SDS011;52176;44.858;38.372;2023-03-01T19:01:03;26.30;;;10.50;;
64917;SDS011;52176;44.858;38.372;2023-03-01T19:03:32;20.48;;;10.43;;
64917;SDS011;52176;44.858;38.372;2023-03-01T19:05:59;24.13;;;9.63;;
64917;SDS011;52176;44.858;38.372;2023-03-01T19:08:26;29.80;;;9.90;;
64917;SDS011;52176;44.858;38.372;2023-03-01T19:10:55;22.48;;;9.68;;
64917;SDS011;52176;44.858;38.372;2023-03-01T19:13:22;20.42;;;9.07;;
64917;SDS011;52176;44.858;38.372;2023-03-01T19:15:48;14.65;;;7.57;;
64917;SDS011;52176;44.858;38.372;2023-03-01T19:18:14;20.67;;;8.35;;
64917;SDS011;52176;44.858;38.372;2023-03-01T19:20:40;27.52;;;8.20;;
64917;SDS011;52176;44.858;38.372;2023-03-01T19:23:06;21.55;;;8.27;;
64917;SDS011;52176;44.858;38.372;2023-03-01T19:25:33;12.27;;;6.75;;
64917;SDS011;52176;44.858;38.372;2023-03-01T19:27:59;14.68;;;7.50;;
64917;SDS011;52176;44.858;38.372;2023-03-01T19:30:25;13.20;;;7.65;;
64917;SDS011;52176;44.858;38.372;2023-03-01T19:32:52;14.63;;;7.28;;
64917;SDS011;52176;44.858;38.372;2023-03-01T19:35:18;12.95;;;6.70;;
64917;SDS011;52176;44.858;38.372;2023-03-01T19:37:44;17.55;;;7.15;;
64917;SDS011;52176;44.858;38.372;2023-03-01T19:40:10;14.75;;;7.32;;
64917;SDS011;52176;44.858;38.372;2023-03-01T19:42:36;17.58;;;8.43;;
64917;SDS011;52176;44.858;38.372;2023-03-01T19:45:02;22.48;;;9.65;;
64917;SDS011;52176;44.858;38.372;2023-03-01T19:47:29;21.77;;;9.80;;
64917;SDS011;52176;44.858;38.372;2023-03-01T19:49:55;22.75;;;10.18;;
64917;SDS011;52176;44.858;38.372;2023-03-01T19:52:21;20.50;;;9.30;;
64917;SDS011;52176;44.858;38.372;2023-03-01T19:54:47;18.25;;;6.63;;
64917;SDS011;52176;44.858;38.372;2023-03-01T19:57:13;9.45;;;5.43;;
64917;SDS011;52176;44.858;38.372;2023-03-01T19:59:39;13.75;;;4.50;;
64917;SDS011;52176;44.858;38.372;2023-03-01T20:02:05;7.78;;;4.22;;
64917;SDS011;52176;44.858;38.372;2023-03-01T20:04:30;6.32;;;3.95;;
64917;SDS011;52176;44.858;38.372;2023-03-01T20:06:56;11.15;;;5.80;;
64917;SDS011;52176;44.858;38.372;2023-03-01T20:09:22;26.50;;;11.55;;
64917;SDS011;52176;44.858;38.372;2023-03-01T20:11:49;29.25;;;12.80;;
64917;SDS011;52176;44.858;38.372;2023-03-01T20:14:16;23.88;;;11.27;;